sensor_id;sensor_type;location;lat;lon;timestamp;P1;durP1;ratioP1;P2;durP2;ratioP2
4448;SDS011;2237;51.870;6.160;2022-07-29T00:00:08;2.30;;;0.85;;
4448;SDS011;2237;51.870;6.160;2022-07-29T00:02:35;3.75;;;0.85;;
4448;SDS011;2237;51.870;6.160;2022-07-29T00:05:03;3.00;;;0.75;;
4448;SDS011;2237;51.870;6.160;2022-07-29T00:07:46;2.45;;;0.90;;
4448;SDS011;2237;51.870;6.160;2022-07-29T00:10:33;3.40;;;1.13;;
4448;SDS011;2237;51.870;6.160;2022-07-29T00:13:00;2.75;;;1.00;;
4448;SDS011;2237;51.870;6.160;2022-07-29T00:15:27;2.95;;;0.77;;
4448;SDS011;2237;51.870;6.160;2022-07-29T00:17:54;2.15;;;0.80;;
4448;SDS011;2237;51.870;6.160;2022-07-29T00:20:21;5.43;;;0.98;;
4448;SDS011;2237;51.870;6.160;2022-07-29T00:22:47;2.65;;;0.98;;
4448;SDS011;2237;51.870;6.160;2022-07-29T00:25:14;1.77;;;0.85;;
4448;SDS011;2237;51.870;6.160;2022-07-29T00:27:41;2.85;;;0.90;;
4448;SDS011;2237;51.870;6.160;2022-07-29T00:30:08;2.50;;;0.98;;
4448;SDS011;2237;51.870;6.160;2022-07-29T00:32:35;2.08;;;0.60;;
4448;SDS011;2237;51.870;6.160;2022-07-29T00:35:02;2.97;;;0.90;;
4448;SDS011;2237;51.870;6.160;2022-07-29T00:37:48;2.72;;;0.98;;
4448;SDS011;2237;51.870;6.160;2022-07-29T00:40:15;2.78;;;0.90;;
4448;SDS011;2237;51.870;6.160;2022-07-29T00:42:49;0.93;;;0.80;;
4448;SDS011;2237;51.870;6.160;2022-07-29T00:45:17;3.25;;;0.88;;
4448;SDS011;2237;51.870;6.160;2022-07-29T00:47:44;2.30;;;1.10;;
4448;SDS011;2237;51.870;6.160;2022-07-29T00:50:12;3.67;;;1.23;;
4448;SDS011;2237;51.870;6.160;2022-07-29T00:52:39;2.38;;;0.90;;
4448;SDS011;2237;51.870;6.160;2022-07-29T00:55:09;4.55;;;0.85;;
4448;SDS011;2237;51.870;6.160;2022-07-29T00:57:38;1.35;;;0.90;;
4448;SDS011;2237;51.870;6.160;2022-07-29T01:00:06;1.65;;;0.80;;
4448;SDS011;2237;51.870;6.160;2022-07-29T01:02:35;5.82;;;1.00;;
4448;SDS011;2237;51.870;6.160;2022-07-29T01:05:03;4.07;;;0.85;;
4448;SDS011;2237;51.870;6.160;2022-07-29T01:07:31;2.53;;;0.70;;
4448;SDS011;2237;51.870;6.160;2022-07-29T01:10:02;2.25;;;1.00;;
4448;SDS011;2237;51.870;6.160;2022-07-29T01:12:30;1.90;;;0.90;;
4448;SDS011;2237;51.870;6.160;2022-07-29T01:15:00;1.50;;;1.00;;
4448;SDS011;2237;51.870;6.160;2022-07-29T01:17:43;7.20;;;1.17;;
4448;SDS011;2237;51.870;6.160;2022-07-29T01:32:11;4.78;;;1.05;;
4448;SDS011;2237;51.870;6.160;2022-07-29T01:37:49;2.25;;;1.00;;
4448;SDS011;2237;51.870;6.160;2022-07-29T01:43:11;5.10;;;0.90;;
4448;SDS011;2237;51.870;6.160;2022-07-29T01:45:56;3.30;;;1.08;;
4448;SDS011;2237;51.870;6.160;2022-07-29T01:48:38;3.53;;;0.95;;
4448;SDS011;2237;51.870;6.160;2022-07-29T01:51:14;5.65;;;0.88;;
4448;SDS011;2237;51.870;6.160;2022-07-29T01:53:47;2.47;;;0.90;;
4448;SDS011;2237;51.870;6.160;2022-07-29T01:56:19;2.40;;;0.98;;
4448;SDS011;2237;51.870;6.160;2022-07-29T01:58:47;4.30;;;0.93;;
4448;SDS011;2237;51.870;6.160;2022-07-29T02:01:15;3.00;;;0.82;;
4448;SDS011;2237;51.870;6.160;2022-07-29T02:03:44;3.58;;;1.00;;
4448;SDS011;2237;51.870;6.160;2022-07-29T02:06:12;2.40;;;0.90;;
4448;SDS011;2237;51.870;6.160;2022-07-29T02:08:44;2.58;;;0.95;;
4448;SDS011;2237;51.870;6.160;2022-07-29T02:11:13;2.05;;;0.75;;
4448;SDS011;2237;51.870;6.160;2022-07-29T02:13:40;6.88;;;1.08;;
4448;SDS011;2237;51.870;6.160;2022-07-29T02:16:08;3.63;;;1.00;;
4448;SDS011;2237;51.870;6.160;2022-07-29T02:18:37;4.65;;;1.10;;
4448;SDS011;2237;51.870;6.160;2022-07-29T02:21:07;3.28;;;1.40;;
4448;SDS011;2237;51.870;6.160;2022-07-29T02:23:41;5.25;;;1.60;;
4448;SDS011;2237;51.870;6.160;2022-07-29T02:26:17;4.88;;;1.40;;
4448;SDS011;2237;51.870;6.160;2022-07-29T02:28:45;3.00;;;1.38;;
4448;SDS011;2237;51.870;6.160;2022-07-29T02:31:13;5.63;;;1.83;;
4448;SDS011;2237;51.870;6.160;2022-07-29T02:33:43;6.13;;;1.60;;
4448;SDS011;2237;51.870;6.160;2022-07-29T02:36:11;6.63;;;1.80;;
4448;SDS011;2237;51.870;6.160;2022-07-29T02:38:39;5.10;;;1.70;;
4448;SDS011;2237;51.870;6.160;2022-07-29T02:41:26;4.25;;;1.60;;
4448;SDS011;2237;51.870;6.160;2022-07-29T02:43:57;3.67;;;1.90;;
4448;SDS011;2237;51.870;6.160;2022-07-29T02:46:33;4.32;;;1.92;;
4448;SDS011;2237;51.870;6.160;2022-07-29T02:49:09;2.30;;;1.48;;
4448;SDS011;2237;51.870;6.160;2022-07-29T02:52:02;3.03;;;1.70;;
4448;SDS011;2237;51.870;6.160;2022-07-29T02:54:56;4.40;;;1.70;;
4448;SDS011;2237;51.870;6.160;2022-07-29T02:57:33;2.97;;;1.77;;
4448;SDS011;2237;51.870;6.160;2022-07-29T03:00:20;4.78;;;1.90;;
4448;SDS011;2237;51.870;6.160;2022-07-29T03:02:50;4.05;;;1.55;;
4448;SDS011;2237;51.870;6.160;2022-07-29T03:05:20;3.03;;;1.95;;
4448;SDS011;2237;51.870;6.160;2022-07-29T03:07:52;4.50;;;2.00;;
4448;SDS011;2237;51.870;6.160;2022-07-29T03:10:22;6.25;;;2.85;;
4448;SDS011;2237;51.870;6.160;2022-07-29T03:12:52;3.90;;;1.95;;
4448;SDS011;2237;51.870;6.160;2022-07-29T03:15:20;5.88;;;2.00;;
4448;SDS011;2237;51.870;6.160;2022-07-29T03:17:50;3.80;;;1.90;;
4448;SDS011;2237;51.870;6.160;2022-07-29T03:20:18;6.35;;;1.98;;
4448;SDS011;2237;51.870;6.160;2022-07-29T03:22:45;4.05;;;2.00;;
4448;SDS011;2237;51.870;6.160;2022-07-29T03:25:15;6.38;;;2.20;;
4448;SDS011;2237;51.870;6.160;2022-07-29T03:27:43;5.68;;;2.28;;
4448;SDS011;2237;51.870;6.160;2022-07-29T03:30:10;3.45;;;2.00;;
4448;SDS011;2237;51.870;6.160;2022-07-29T03:32:47;5.80;;;2.20;;
4448;SDS011;2237;51.870;6.160;2022-07-29T03:35:14;3.45;;;2.20;;
4448;SDS011;2237;51.870;6.160;2022-07-29T03:37:43;4.20;;;1.85;;
4448;SDS011;2237;51.870;6.160;2022-07-29T03:40:11;3.80;;;2.10;;
4448;SDS011;2237;51.870;6.160;2022-07-29T03:42:40;5.43;;;2.17;;
4448;SDS011;2237;51.870;6.160;2022-07-29T03:45:10;5.63;;;2.30;;
4448;SDS011;2237;51.870;6.160;2022-07-29T03:47:42;4.65;;;2.42;;
4448;SDS011;2237;51.870;6.160;2022-07-29T03:50:17;4.50;;;2.35;;
4448;SDS011;2237;51.870;6.160;2022-07-29T03:52:46;4.57;;;2.22;;
4448;SDS011;2237;51.870;6.160;2022-07-29T03:55:14;4.88;;;2.33;;
4448;SDS011;2237;51.870;6.160;2022-07-29T03:57:43;4.22;;;2.17;;
4448;SDS011;2237;51.870;6.160;2022-07-29T04:00:11;4.65;;;2.03;;
4448;SDS011;2237;51.870;6.160;2022-07-29T04:02:38;6.10;;;2.75;;
4448;SDS011;2237;51.870;6.160;2022-07-29T04:05:11;4.75;;;2.33;;
4448;SDS011;2237;51.870;6.160;2022-07-29T04:07:39;6.40;;;2.80;;
4448;SDS011;2237;51.870;6.160;2022-07-29T04:10:07;4.00;;;2.33;;
4448;SDS011;2237;51.870;6.160;2022-07-29T04:12:34;5.60;;;2.35;;
4448;SDS011;2237;51.870;6.160;2022-07-29T04:15:02;4.93;;;2.55;;
4448;SDS011;2237;51.870;6.160;2022-07-29T04:17:30;3.95;;;2.47;;
4448;SDS011;2237;51.870;6.160;2022-07-29T04:19:56;4.35;;;2.38;;
4448;SDS011;2237;51.870;6.160;2022-07-29T04:22:23;4.63;;;2.65;;
4448;SDS011;2237;51.870;6.160;2022-07-29T04:24:50;6.35;;;2.47;;
4448;SDS011;2237;51.870;6.160;2022-07-29T04:27:17;7.18;;;2.70;;
4448;SDS011;2237;51.870;6.160;2022-07-29T04:29:46;5.38;;;2.67;;
4448;SDS011;2237;51.870;6.160;2022-07-29T04:32:22;5.25;;;2.28;;
4448;SDS011;2237;51.870;6.160;2022-07-29T04:34:49;4.88;;;2.10;;
4448;SDS011;2237;51.870;6.160;2022-07-29T04:37:15;5.78;;;2.35;;
4448;SDS011;2237;51.870;6.160;2022-07-29T04:39:42;4.63;;;2.38;;
4448;SDS011;2237;51.870;6.160;2022-07-29T04:42:09;6.82;;;2.50;;
4448;SDS011;2237;51.870;6.160;2022-07-29T04:44:36;3.88;;;2.13;;
4448;SDS011;2237;51.870;6.160;2022-07-29T04:47:08;5.60;;;2.40;;
4448;SDS011;2237;51.870;6.160;2022-07-29T04:49:37;5.47;;;2.40;;
4448;SDS011;2237;51.870;6.160;2022-07-29T04:52:05;2.80;;;2.00;;
4448;SDS011;2237;51.870;6.160;2022-07-29T04:54:32;3.60;;;2.25;;
4448;SDS011;2237;51.870;6.160;2022-07-29T04:56:59;4.63;;;2.47;;
4448;SDS011;2237;51.870;6.160;2022-07-29T04:59:25;5.30;;;2.70;;
4448;SDS011;2237;51.870;6.160;2022-07-29T05:01:53;6.32;;;2.35;;
4448;SDS011;2237;51.870;6.160;2022-07-29T05:04:20;5.07;;;2.25;;
4448;SDS011;2237;51.870;6.160;2022-07-29T05:06:47;4.53;;;2.28;;
4448;SDS011;2237;51.870;6.160;2022-07-29T05:09:13;6.13;;;2.33;;
4448;SDS011;2237;51.870;6.160;2022-07-29T05:11:40;5.35;;;2.15;;
4448;SDS011;2237;51.870;6.160;2022-07-29T05:14:07;5.45;;;2.53;;
4448;SDS011;2237;51.870;6.160;2022-07-29T05:16:34;4.65;;;2.05;;
4448;SDS011;2237;51.870;6.160;2022-07-29T05:19:01;4.32;;;2.15;;
4448;SDS011;2237;51.870;6.160;2022-07-29T05:21:27;6.18;;;2.55;;
4448;SDS011;2237;51.870;6.160;2022-07-29T05:23:54;6.60;;;2.85;;
4448;SDS011;2237;51.870;6.160;2022-07-29T05:26:21;10.35;;;2.38;;
4448;SDS011;2237;51.870;6.160;2022-07-29T05:28:48;4.10;;;2.10;;
4448;SDS011;2237;51.870;6.160;2022-07-29T05:31:14;3.60;;;2.40;;
4448;SDS011;2237;51.870;6.160;2022-07-29T05:33:42;3.42;;;2.20;;
4448;SDS011;2237;51.870;6.160;2022-07-29T05:36:09;8.18;;;2.50;;
4448;SDS011;2237;51.870;6.160;2022-07-29T05:38:35;5.72;;;2.67;;
4448;SDS011;2237;51.870;6.160;2022-07-29T05:41:02;5.63;;;2.60;;
4448;SDS011;2237;51.870;6.160;2022-07-29T05:43:30;4.32;;;2.42;;
4448;SDS011;2237;51.870;6.160;2022-07-29T05:45:57;5.60;;;2.55;;
4448;SDS011;2237;51.870;6.160;2022-07-29T05:48:25;5.18;;;1.92;;
4448;SDS011;2237;51.870;6.160;2022-07-29T05:50:51;4.15;;;2.25;;
4448;SDS011;2237;51.870;6.160;2022-07-29T05:53:18;5.47;;;2.50;;
4448;SDS011;2237;51.870;6.160;2022-07-29T05:55:46;6.45;;;2.42;;
4448;SDS011;2237;51.870;6.160;2022-07-29T05:58:14;3.60;;;2.35;;
4448;SDS011;2237;51.870;6.160;2022-07-29T06:00:41;6.55;;;2.40;;
4448;SDS011;2237;51.870;6.160;2022-07-29T06:03:07;5.88;;;2.45;;
4448;SDS011;2237;51.870;6.160;2022-07-29T06:05:34;3.85;;;2.50;;
4448;SDS011;2237;51.870;6.160;2022-07-29T06:08:01;3.40;;;2.35;;
4448;SDS011;2237;51.870;6.160;2022-07-29T06:10:27;5.95;;;2.33;;
4448;SDS011;2237;51.870;6.160;2022-07-29T06:12:54;4.05;;;2.30;;
4448;SDS011;2237;51.870;6.160;2022-07-29T06:15:21;4.15;;;2.28;;
4448;SDS011;2237;51.870;6.160;2022-07-29T06:17:47;7.57;;;2.80;;
4448;SDS011;2237;51.870;6.160;2022-07-29T06:20:30;3.40;;;2.40;;
4448;SDS011;2237;51.870;6.160;2022-07-29T06:25:25;6.25;;;2.67;;
4448;SDS011;2237;51.870;6.160;2022-07-29T06:27:51;7.28;;;2.88;;
4448;SDS011;2237;51.870;6.160;2022-07-29T06:30:18;4.28;;;2.50;;
4448;SDS011;2237;51.870;6.160;2022-07-29T06:32:45;5.88;;;2.38;;
4448;SDS011;2237;51.870;6.160;2022-07-29T06:35:11;3.42;;;2.30;;
4448;SDS011;2237;51.870;6.160;2022-07-29T06:37:58;5.00;;;2.38;;
4448;SDS011;2237;51.870;6.160;2022-07-29T06:40:25;6.07;;;2.70;;
4448;SDS011;2237;51.870;6.160;2022-07-29T06:43:11;3.38;;;2.50;;
4448;SDS011;2237;51.870;6.160;2022-07-29T06:45:37;3.55;;;2.35;;
4448;SDS011;2237;51.870;6.160;2022-07-29T06:48:07;4.88;;;2.25;;
4448;SDS011;2237;51.870;6.160;2022-07-29T06:50:34;4.88;;;2.35;;
4448;SDS011;2237;51.870;6.160;2022-07-29T06:53:00;7.65;;;2.35;;
4448;SDS011;2237;51.870;6.160;2022-07-29T06:55:27;5.18;;;2.60;;
4448;SDS011;2237;51.870;6.160;2022-07-29T06:57:53;6.72;;;2.47;;
4448;SDS011;2237;51.870;6.160;2022-07-29T07:00:20;4.43;;;2.20;;
4448;SDS011;2237;51.870;6.160;2022-07-29T07:02:46;4.45;;;2.75;;
4448;SDS011;2237;51.870;6.160;2022-07-29T07:05:13;4.32;;;2.30;;
4448;SDS011;2237;51.870;6.160;2022-07-29T07:07:39;3.55;;;2.30;;
4448;SDS011;2237;51.870;6.160;2022-07-29T07:10:08;6.15;;;2.40;;
4448;SDS011;2237;51.870;6.160;2022-07-29T07:12:35;4.40;;;2.22;;
4448;SDS011;2237;51.870;6.160;2022-07-29T07:15:01;5.25;;;2.17;;
4448;SDS011;2237;51.870;6.160;2022-07-29T07:17:29;4.10;;;2.20;;
4448;SDS011;2237;51.870;6.160;2022-07-29T07:19:55;3.67;;;2.13;;
4448;SDS011;2237;51.870;6.160;2022-07-29T07:22:22;11.18;;;2.60;;
4448;SDS011;2237;51.870;6.160;2022-07-29T07:24:48;4.80;;;2.20;;
4448;SDS011;2237;51.870;6.160;2022-07-29T07:27:14;6.82;;;2.45;;
4448;SDS011;2237;51.870;6.160;2022-07-29T07:29:42;3.08;;;2.17;;
4448;SDS011;2237;51.870;6.160;2022-07-29T07:32:11;5.43;;;2.65;;
4448;SDS011;2237;51.870;6.160;2022-07-29T07:34:39;5.55;;;2.30;;
4448;SDS011;2237;51.870;6.160;2022-07-29T07:37:06;4.70;;;2.45;;
4448;SDS011;2237;51.870;6.160;2022-07-29T07:39:32;6.15;;;2.33;;
4448;SDS011;2237;51.870;6.160;2022-07-29T07:41:59;3.92;;;2.40;;
4448;SDS011;2237;51.870;6.160;2022-07-29T07:44:25;3.30;;;2.30;;
4448;SDS011;2237;51.870;6.160;2022-07-29T07:46:52;5.75;;;2.10;;
4448;SDS011;2237;51.870;6.160;2022-07-29T07:49:19;4.88;;;2.33;;
4448;SDS011;2237;51.870;6.160;2022-07-29T07:51:46;6.93;;;2.63;;
4448;SDS011;2237;51.870;6.160;2022-07-29T07:54:16;6.70;;;2.72;;
4448;SDS011;2237;51.870;6.160;2022-07-29T07:56:43;6.28;;;2.80;;
4448;SDS011;2237;51.870;6.160;2022-07-29T07:59:10;4.90;;;2.17;;
4448;SDS011;2237;51.870;6.160;2022-07-29T08:01:36;6.47;;;2.60;;
4448;SDS011;2237;51.870;6.160;2022-07-29T08:04:21;6.47;;;2.47;;
4448;SDS011;2237;51.870;6.160;2022-07-29T08:06:53;6.30;;;2.80;;
4448;SDS011;2237;51.870;6.160;2022-07-29T08:09:23;7.47;;;2.72;;
4448;SDS011;2237;51.870;6.160;2022-07-29T08:11:56;8.52;;;2.38;;
4448;SDS011;2237;51.870;6.160;2022-07-29T08:14:23;4.28;;;2.63;;
4448;SDS011;2237;51.870;6.160;2022-07-29T08:16:50;5.78;;;2.30;;
4448;SDS011;2237;51.870;6.160;2022-07-29T08:19:17;4.32;;;2.40;;
4448;SDS011;2237;51.870;6.160;2022-07-29T08:21:44;8.40;;;2.60;;
4448;SDS011;2237;51.870;6.160;2022-07-29T08:24:11;5.30;;;2.50;;
4448;SDS011;2237;51.870;6.160;2022-07-29T08:26:56;5.63;;;2.38;;
4448;SDS011;2237;51.870;6.160;2022-07-29T08:29:22;5.60;;;2.63;;
4448;SDS011;2237;51.870;6.160;2022-07-29T08:31:49;5.10;;;2.47;;
4448;SDS011;2237;51.870;6.160;2022-07-29T08:34:16;3.25;;;2.20;;
4448;SDS011;2237;51.870;6.160;2022-07-29T08:36:43;4.18;;;2.28;;
4448;SDS011;2237;51.870;6.160;2022-07-29T08:39:15;4.43;;;2.25;;
4448;SDS011;2237;51.870;6.160;2022-07-29T08:41:42;5.38;;;2.70;;
4448;SDS011;2237;51.870;6.160;2022-07-29T08:44:22;4.90;;;2.42;;
4448;SDS011;2237;51.870;6.160;2022-07-29T08:46:56;3.08;;;2.25;;
4448;SDS011;2237;51.870;6.160;2022-07-29T08:49:22;4.20;;;2.28;;
4448;SDS011;2237;51.870;6.160;2022-07-29T08:51:49;3.42;;;2.45;;
4448;SDS011;2237;51.870;6.160;2022-07-29T08:54:17;7.75;;;2.65;;
4448;SDS011;2237;51.870;6.160;2022-07-29T08:56:45;11.75;;;3.10;;
4448;SDS011;2237;51.870;6.160;2022-07-29T08:59:16;6.95;;;2.83;;
4448;SDS011;2237;51.870;6.160;2022-07-29T09:01:50;4.60;;;2.70;;
4448;SDS011;2237;51.870;6.160;2022-07-29T09:04:20;3.53;;;2.70;;
4448;SDS011;2237;51.870;6.160;2022-07-29T09:06:49;5.57;;;2.78;;
4448;SDS011;2237;51.870;6.160;2022-07-29T09:09:18;3.42;;;2.30;;
4448;SDS011;2237;51.870;6.160;2022-07-29T09:11:45;4.18;;;2.75;;
4448;SDS011;2237;51.870;6.160;2022-07-29T09:14:12;4.15;;;2.90;;
4448;SDS011;2237;51.870;6.160;2022-07-29T09:16:55;5.78;;;2.95;;
4448;SDS011;2237;51.870;6.160;2022-07-29T09:19:30;5.80;;;2.92;;
4448;SDS011;2237;51.870;6.160;2022-07-29T09:21:59;6.43;;;2.97;;
4448;SDS011;2237;51.870;6.160;2022-07-29T09:27:24;5.20;;;2.95;;
4448;SDS011;2237;51.870;6.160;2022-07-29T09:30:05;6.13;;;2.58;;
4448;SDS011;2237;51.870;6.160;2022-07-29T09:32:33;4.65;;;2.60;;
4448;SDS011;2237;51.870;6.160;2022-07-29T09:35:21;6.72;;;3.03;;
4448;SDS011;2237;51.870;6.160;2022-07-29T09:37:52;8.30;;;2.65;;
4448;SDS011;2237;51.870;6.160;2022-07-29T09:40:24;5.45;;;2.83;;
4448;SDS011;2237;51.870;6.160;2022-07-29T09:42:54;8.00;;;2.80;;
4448;SDS011;2237;51.870;6.160;2022-07-29T09:45:27;4.32;;;2.70;;
4448;SDS011;2237;51.870;6.160;2022-07-29T09:47:58;9.45;;;2.88;;
4448;SDS011;2237;51.870;6.160;2022-07-29T09:50:39;3.42;;;2.67;;
4448;SDS011;2237;51.870;6.160;2022-07-29T09:53:10;7.55;;;2.67;;
4448;SDS011;2237;51.870;6.160;2022-07-29T09:55:47;6.13;;;2.78;;
4448;SDS011;2237;51.870;6.160;2022-07-29T09:58:18;8.40;;;2.90;;
4448;SDS011;2237;51.870;6.160;2022-07-29T10:00:47;6.38;;;2.88;;
4448;SDS011;2237;51.870;6.160;2022-07-29T10:03:16;9.68;;;2.65;;
4448;SDS011;2237;51.870;6.160;2022-07-29T10:05:44;4.15;;;2.65;;
4448;SDS011;2237;51.870;6.160;2022-07-29T10:08:12;6.78;;;2.75;;
4448;SDS011;2237;51.870;6.160;2022-07-29T10:10:40;5.40;;;2.95;;
4448;SDS011;2237;51.870;6.160;2022-07-29T10:13:09;6.10;;;3.15;;
4448;SDS011;2237;51.870;6.160;2022-07-29T10:15:42;6.22;;;2.95;;
4448;SDS011;2237;51.870;6.160;2022-07-29T10:18:14;8.70;;;2.97;;
4448;SDS011;2237;51.870;6.160;2022-07-29T10:20:46;6.25;;;2.70;;
4448;SDS011;2237;51.870;6.160;2022-07-29T10:23:14;7.38;;;3.17;;
4448;SDS011;2237;51.870;6.160;2022-07-29T10:25:41;5.75;;;2.72;;
4448;SDS011;2237;51.870;6.160;2022-07-29T10:28:12;5.53;;;2.95;;
4448;SDS011;2237;51.870;6.160;2022-07-29T10:30:45;6.93;;;2.40;;
4448;SDS011;2237;51.870;6.160;2022-07-29T10:36:13;6.38;;;2.22;;
4448;SDS011;2237;51.870;6.160;2022-07-29T10:41:34;5.38;;;2.30;;
4448;SDS011;2237;51.870;6.160;2022-07-29T10:44:21;4.00;;;2.10;;
4448;SDS011;2237;51.870;6.160;2022-07-29T10:46:50;5.75;;;2.63;;
4448;SDS011;2237;51.870;6.160;2022-07-29T10:49:21;4.97;;;2.90;;
4448;SDS011;2237;51.870;6.160;2022-07-29T10:51:57;5.70;;;2.60;;
4448;SDS011;2237;51.870;6.160;2022-07-29T10:57:12;4.43;;;3.03;;
4448;SDS011;2237;51.870;6.160;2022-07-29T10:59:39;6.55;;;2.95;;
4448;SDS011;2237;51.870;6.160;2022-07-29T11:05:11;4.85;;;2.20;;
4448;SDS011;2237;51.870;6.160;2022-07-29T11:07:40;5.57;;;2.40;;
4448;SDS011;2237;51.870;6.160;2022-07-29T11:10:27;6.18;;;2.42;;
4448;SDS011;2237;51.870;6.160;2022-07-29T11:12:57;4.45;;;2.15;;
4448;SDS011;2237;51.870;6.160;2022-07-29T11:15:24;5.68;;;1.98;;
4448;SDS011;2237;51.870;6.160;2022-07-29T11:23:18;7.68;;;2.28;;
4448;SDS011;2237;51.870;6.160;2022-07-29T11:28:39;4.78;;;2.30;;
4448;SDS011;2237;51.870;6.160;2022-07-29T11:31:09;3.95;;;2.28;;
4448;SDS011;2237;51.870;6.160;2022-07-29T11:33:37;3.65;;;2.10;;
4448;SDS011;2237;51.870;6.160;2022-07-29T11:36:22;4.40;;;1.67;;
4448;SDS011;2237;51.870;6.160;2022-07-29T11:38:53;6.38;;;1.88;;
4448;SDS011;2237;51.870;6.160;2022-07-29T11:45:09;3.72;;;1.55;;
4448;SDS011;2237;51.870;6.160;2022-07-29T11:47:59;5.22;;;2.35;;
4448;SDS011;2237;51.870;6.160;2022-07-29T11:50:46;4.65;;;2.08;;
4448;SDS011;2237;51.870;6.160;2022-07-29T11:53:13;6.40;;;1.80;;
4448;SDS011;2237;51.870;6.160;2022-07-29T11:56:00;5.53;;;1.90;;
4448;SDS011;2237;51.870;6.160;2022-07-29T11:58:29;5.30;;;1.77;;
4448;SDS011;2237;51.870;6.160;2022-07-29T12:00:57;4.03;;;1.55;;
4448;SDS011;2237;51.870;6.160;2022-07-29T12:03:30;3.75;;;1.58;;
4448;SDS011;2237;51.870;6.160;2022-07-29T12:06:17;2.97;;;1.45;;
4448;SDS011;2237;51.870;6.160;2022-07-29T12:08:46;7.97;;;2.60;;
4448;SDS011;2237;51.870;6.160;2022-07-29T12:11:17;4.85;;;1.52;;
4448;SDS011;2237;51.870;6.160;2022-07-29T12:13:46;3.40;;;1.65;;
4448;SDS011;2237;51.870;6.160;2022-07-29T12:16:14;3.28;;;1.80;;
4448;SDS011;2237;51.870;6.160;2022-07-29T12:18:55;4.53;;;1.77;;
4448;SDS011;2237;51.870;6.160;2022-07-29T12:21:27;4.60;;;2.10;;
4448;SDS011;2237;51.870;6.160;2022-07-29T12:23:56;12.10;;;1.85;;
4448;SDS011;2237;51.870;6.160;2022-07-29T12:26:34;3.33;;;1.48;;
4448;SDS011;2237;51.870;6.160;2022-07-29T12:29:01;3.25;;;1.42;;
4448;SDS011;2237;51.870;6.160;2022-07-29T12:31:28;3.20;;;1.60;;
4448;SDS011;2237;51.870;6.160;2022-07-29T12:34:10;2.83;;;1.67;;
4448;SDS011;2237;51.870;6.160;2022-07-29T12:36:38;3.97;;;1.67;;
4448;SDS011;2237;51.870;6.160;2022-07-29T12:39:06;7.22;;;1.92;;
4448;SDS011;2237;51.870;6.160;2022-07-29T12:41:33;3.95;;;1.70;;
4448;SDS011;2237;51.870;6.160;2022-07-29T12:44:04;2.85;;;1.88;;
4448;SDS011;2237;51.870;6.160;2022-07-29T12:46:31;4.20;;;1.80;;
4448;SDS011;2237;51.870;6.160;2022-07-29T12:48:57;4.32;;;1.67;;
4448;SDS011;2237;51.870;6.160;2022-07-29T12:56:41;3.53;;;1.70;;
4448;SDS011;2237;51.870;6.160;2022-07-29T12:59:11;5.18;;;1.48;;
4448;SDS011;2237;51.870;6.160;2022-07-29T13:01:49;2.83;;;1.38;;
4448;SDS011;2237;51.870;6.160;2022-07-29T13:04:31;4.00;;;1.45;;
4448;SDS011;2237;51.870;6.160;2022-07-29T13:09:49;4.85;;;1.80;;
4448;SDS011;2237;51.870;6.160;2022-07-29T13:12:14;3.88;;;1.40;;
4448;SDS011;2237;51.870;6.160;2022-07-29T13:14:42;2.60;;;1.58;;
4448;SDS011;2237;51.870;6.160;2022-07-29T13:22:34;2.65;;;1.25;;
4448;SDS011;2237;51.870;6.160;2022-07-29T13:25:01;3.72;;;1.20;;
4448;SDS011;2237;51.870;6.160;2022-07-29T13:27:37;2.15;;;1.00;;
4448;SDS011;2237;51.870;6.160;2022-07-29T13:32:35;3.40;;;1.27;;
4448;SDS011;2237;51.870;6.160;2022-07-29T13:35:04;2.60;;;1.20;;
4448;SDS011;2237;51.870;6.160;2022-07-29T13:37:36;3.05;;;1.00;;
4448;SDS011;2237;51.870;6.160;2022-07-29T13:40:09;3.10;;;1.33;;
4448;SDS011;2237;51.870;6.160;2022-07-29T13:42:40;7.10;;;1.20;;
4448;SDS011;2237;51.870;6.160;2022-07-29T13:45:08;3.70;;;1.25;;
4448;SDS011;2237;51.870;6.160;2022-07-29T13:47:37;2.88;;;1.10;;
4448;SDS011;2237;51.870;6.160;2022-07-29T13:50:05;7.75;;;1.27;;
4448;SDS011;2237;51.870;6.160;2022-07-29T13:52:41;4.07;;;1.10;;
4448;SDS011;2237;51.870;6.160;2022-07-29T13:55:08;3.53;;;1.10;;
4448;SDS011;2237;51.870;6.160;2022-07-29T13:57:37;2.28;;;1.20;;
4448;SDS011;2237;51.870;6.160;2022-07-29T14:00:04;3.90;;;1.42;;
4448;SDS011;2237;51.870;6.160;2022-07-29T14:02:33;4.28;;;1.25;;
4448;SDS011;2237;51.870;6.160;2022-07-29T14:05:03;2.88;;;1.10;;
4448;SDS011;2237;51.870;6.160;2022-07-29T14:07:33;3.50;;;0.90;;
4448;SDS011;2237;51.870;6.160;2022-07-29T14:10:00;3.00;;;1.08;;
4448;SDS011;2237;51.870;6.160;2022-07-29T14:12:27;2.85;;;1.13;;
4448;SDS011;2237;51.870;6.160;2022-07-29T14:14:54;3.40;;;1.13;;
4448;SDS011;2237;51.870;6.160;2022-07-29T14:17:20;3.50;;;1.05;;
4448;SDS011;2237;51.870;6.160;2022-07-29T14:19:48;3.03;;;1.00;;
4448;SDS011;2237;51.870;6.160;2022-07-29T14:22:14;3.50;;;1.30;;
4448;SDS011;2237;51.870;6.160;2022-07-29T14:24:41;4.43;;;1.08;;
4448;SDS011;2237;51.870;6.160;2022-07-29T14:27:08;4.25;;;1.17;;
4448;SDS011;2237;51.870;6.160;2022-07-29T14:29:35;2.08;;;1.17;;
4448;SDS011;2237;51.870;6.160;2022-07-29T14:32:04;5.60;;;1.40;;
4448;SDS011;2237;51.870;6.160;2022-07-29T14:37:00;2.00;;;1.30;;
4448;SDS011;2237;51.870;6.160;2022-07-29T14:39:29;2.55;;;1.30;;
4448;SDS011;2237;51.870;6.160;2022-07-29T14:41:57;3.58;;;1.40;;
4448;SDS011;2237;51.870;6.160;2022-07-29T14:44:25;4.10;;;1.30;;
4448;SDS011;2237;51.870;6.160;2022-07-29T14:46:58;2.88;;;1.40;;
4448;SDS011;2237;51.870;6.160;2022-07-29T14:49:26;2.35;;;1.42;;
4448;SDS011;2237;51.870;6.160;2022-07-29T14:51:53;3.22;;;1.20;;
4448;SDS011;2237;51.870;6.160;2022-07-29T14:54:22;1.47;;;1.20;;
4448;SDS011;2237;51.870;6.160;2022-07-29T14:56:59;5.47;;;1.42;;
4448;SDS011;2237;51.870;6.160;2022-07-29T14:59:29;3.53;;;1.48;;
4448;SDS011;2237;51.870;6.160;2022-07-29T15:01:57;4.50;;;1.52;;
4448;SDS011;2237;51.870;6.160;2022-07-29T15:04:28;1.50;;;1.15;;
4448;SDS011;2237;51.870;6.160;2022-07-29T15:06:54;10.75;;;1.90;;
4448;SDS011;2237;51.870;6.160;2022-07-29T15:09:21;4.32;;;1.30;;
4448;SDS011;2237;51.870;6.160;2022-07-29T15:11:47;2.28;;;1.33;;
4448;SDS011;2237;51.870;6.160;2022-07-29T15:14:14;4.90;;;1.40;;
4448;SDS011;2237;51.870;6.160;2022-07-29T15:16:41;5.80;;;1.67;;
4448;SDS011;2237;51.870;6.160;2022-07-29T15:19:12;8.52;;;1.65;;
4448;SDS011;2237;51.870;6.160;2022-07-29T15:21:38;4.30;;;1.40;;
4448;SDS011;2237;51.870;6.160;2022-07-29T15:24:14;2.00;;;1.40;;
4448;SDS011;2237;51.870;6.160;2022-07-29T15:26:44;1.50;;;1.40;;
4448;SDS011;2237;51.870;6.160;2022-07-29T15:29:14;3.33;;;1.10;;
4448;SDS011;2237;51.870;6.160;2022-07-29T15:31:41;2.65;;;1.42;;
4448;SDS011;2237;51.870;6.160;2022-07-29T15:34:18;1.67;;;1.30;;
4448;SDS011;2237;51.870;6.160;2022-07-29T15:36:50;3.22;;;1.65;;
4448;SDS011;2237;51.870;6.160;2022-07-29T15:39:19;2.15;;;1.60;;
4448;SDS011;2237;51.870;6.160;2022-07-29T15:41:48;3.38;;;1.70;;
4448;SDS011;2237;51.870;6.160;2022-07-29T15:44:18;3.97;;;1.33;;
4448;SDS011;2237;51.870;6.160;2022-07-29T15:46:46;2.83;;;1.40;;
4448;SDS011;2237;51.870;6.160;2022-07-29T15:49:29;4.28;;;1.23;;
4448;SDS011;2237;51.870;6.160;2022-07-29T15:52:16;5.28;;;1.10;;
4448;SDS011;2237;51.870;6.160;2022-07-29T15:54:52;1.60;;;1.40;;
4448;SDS011;2237;51.870;6.160;2022-07-29T15:57:20;3.17;;;1.40;;
4448;SDS011;2237;51.870;6.160;2022-07-29T15:59:47;4.32;;;1.30;;
4448;SDS011;2237;51.870;6.160;2022-07-29T16:02:14;3.45;;;1.02;;
4448;SDS011;2237;51.870;6.160;2022-07-29T16:04:41;1.40;;;1.10;;
4448;SDS011;2237;51.870;6.160;2022-07-29T16:07:10;5.53;;;1.20;;
4448;SDS011;2237;51.870;6.160;2022-07-29T16:09:39;3.97;;;1.20;;
4448;SDS011;2237;51.870;6.160;2022-07-29T16:12:06;6.80;;;1.40;;
4448;SDS011;2237;51.870;6.160;2022-07-29T16:14:40;3.22;;;1.00;;
4448;SDS011;2237;51.870;6.160;2022-07-29T16:17:07;3.53;;;1.50;;
4448;SDS011;2237;51.870;6.160;2022-07-29T16:19:39;2.05;;;1.02;;
4448;SDS011;2237;51.870;6.160;2022-07-29T16:22:05;2.20;;;1.30;;
4448;SDS011;2237;51.870;6.160;2022-07-29T16:24:37;2.00;;;1.02;;
4448;SDS011;2237;51.870;6.160;2022-07-29T16:27:07;3.65;;;1.17;;
4448;SDS011;2237;51.870;6.160;2022-07-29T16:29:34;3.22;;;1.52;;
4448;SDS011;2237;51.870;6.160;2022-07-29T16:32:03;3.10;;;1.27;;
4448;SDS011;2237;51.870;6.160;2022-07-29T16:34:30;2.53;;;1.30;;
4448;SDS011;2237;51.870;6.160;2022-07-29T16:36:57;3.05;;;1.40;;